Time;durP1;ratioP1;P1;durP2;ratioP2;P2;SDS_P1;SDS_P2;PMS_P1;PMS_P2;Temp;Humidity;BMP_temperature;BMP_pressure;BME280_temperature;BME280_humidity;BME280_pressure;Samples;Min_cycle;Max_cycle;Signal;HPM_P1;HPM_P2
2023/09/22 00:02:03;;;;;;;1.20;0.38;;;;;;;13.99;100.00;96174.34;5004719;28;20113;-64
2023/09/22 00:04:30;;;;;;;2.03;0.22;;;;;;;13.93;100.00;96188.34;5005348;28;20115;-63
2023/09/22 00:06:57;;;;;;;3.55;0.40;;;;;;;13.91;100.00;96199.53;5006028;28;20041;-64
2023/09/22 00:09:23;;;;;;;1.17;0.60;;;;;;;13.82;100.00;96202.16;5003864;28;20045;-63
2023/09/22 00:11:50;;;;;;;1.00;0.30;;;;;;;13.80;100.00;96201.66;5004956;28;20056;-65
2023/09/22 00:14:16;;;;;;;2.35;0.40;;;;;;;13.81;100.00;96213.34;5004919;28;20103;-61
2023/09/22 00:16:43;;;;;;;1.50;0.50;;;;;;;13.74;100.00;96191.97;5000171;28;20084;-64
2023/09/22 00:19:09;;;;;;;1.63;0.50;;;;;;;13.81;100.00;96211.41;5004907;28;20714;-62
2023/09/22 00:21:36;;;;;;;1.40;0.50;;;;;;;13.71;100.00;96174.34;5005240;28;20484;-62
2023/09/22 00:24:03;;;;;;;1.30;0.60;;;;;;;13.70;100.00;96169.19;5004197;28;20048;-63
2023/09/22 00:26:29;;;;;;;0.80;0.30;;;;;;;13.79;100.00;96186.44;5004093;28;20685;-62
2023/09/22 00:28:59;;;;;;;2.10;0.65;;;;;;;13.92;100.00;96203.84;5005157;28;20764;-63
2023/09/22 00:31:25;;;;;;;2.22;0.40;;;;;;;13.90;100.00;96176.94;5010138;28;20456;-62
2023/09/22 00:33:53;;;;;;;2.92;0.57;;;;;;;13.97;100.00;96181.97;4986809;28;20042;-64
2023/09/22 00:36:20;;;;;;;1.65;0.40;;;;;;;14.03;100.00;96193.56;4986931;28;20092;-64
2023/09/22 00:38:47;;;;;;;2.60;0.70;;;;;;;13.86;100.00;96115.31;5003432;28;20120;-64
2023/09/22 00:41:14;;;;;;;2.67;0.50;;;;;;;13.86;100.00;96150.66;4986574;28;20042;-65
2023/09/22 00:43:42;;;;;;;1.02;0.43;;;;;;;13.80;100.00;96147.25;5005137;28;20046;-62
2023/09/22 00:46:12;;;;;;;1.40;0.63;;;;;;;13.82;100.00;96161.34;5004453;28;20037;-62
2023/09/22 00:48:40;;;;;;;1.95;0.40;;;;;;;13.70;100.00;96142.00;5002984;28;20054;-62
2023/09/22 00:51:07;;;;;;;0.95;0.35;;;;;;;13.66;100.00;96158.13;5003416;28;20046;-63
2023/09/22 00:53:36;;;;;;;1.77;0.50;;;;;;;13.65;100.00;96179.06;4994485;28;20041;-61
2023/09/22 00:56:03;;;;;;;1.25;0.40;;;;;;;13.70;100.00;96199.94;4991604;28;20688;-63
2023/09/22 00:58:30;;;;;;;2.30;0.63;;;;;;;13.67;100.00;96184.19;5003979;28;20105;-62
2023/09/22 01:00:58;;;;;;;1.73;0.60;;;;;;;13.65;100.00;96168.19;4988671;28;20050;-62
2023/09/22 01:03:25;;;;;;;2.40;0.50;;;;;;;13.46;100.00;96134.81;5002967;28;20040;-63
2023/09/22 01:05:52;;;;;;;1.27;0.50;;;;;;;13.39;100.00;96137.94;4986513;28;20058;-62
2023/09/22 01:08:20;;;;;;;2.53;0.52;;;;;;;13.30;100.00;96129.66;5002853;28;20078;-64
2023/09/22 01:10:46;;;;;;;0.50;0.40;;;;;;;13.32;100.00;96135.63;5004199;28;20441;-63
2023/09/22 01:13:13;;;;;;;2.38;0.52;;;;;;;13.33;100.00;96120.91;5003251;28;20120;-63
2023/09/22 01:15:41;;;;;;;2.05;0.40;;;;;;;13.33;100.00;96106.50;5003721;28;20045;-64
2023/09/22 01:18:10;;;;;;;1.30;0.60;;;;;;;13.25;100.00;96084.38;4986776;28;20045;-64
2023/09/22 01:20:42;;;;;;;0.93;0.30;;;;;;;13.17;100.00;96071.47;5003555;28;20145;-62
2023/09/22 01:23:09;;;;;;;1.20;0.40;;;;;;;13.34;100.00;96114.34;5003124;28;20489;-62
2023/09/22 01:25:39;;;;;;;1.83;0.35;;;;;;;13.23;100.00;96072.19;5003465;28;20033;-62
2023/09/22 01:28:10;;;;;;;2.05;0.60;;;;;;;13.21;100.00;96052.66;5003312;28;20119;-63
2023/09/22 01:30:39;;;;;;;;;;;;;;;13.03;100.00;96060.59;5003767;28;20045;-62
2023/09/22 01:33:06;;;;;;;1.95;0.55;;;;;;;12.92;100.00;96080.88;4994313;28;19968;-63
2023/09/22 01:35:35;;;;;;;1.25;0.50;;;;;;;12.94;100.00;96095.00;5003604;28;20489;-63
2023/09/22 01:38:24;;;;;;;1.88;0.82;;;;;;;12.99;100.00;96094.91;4988906;28;20351;-64
2023/09/22 01:40:52;;;;;;;1.98;0.63;;;;;;;12.87;100.00;96088.03;5001997;28;20052;-63
2023/09/22 01:43:18;;;;;;;2.22;0.80;;;;;;;12.90;100.00;96091.25;5002796;28;20038;-62
2023/09/22 01:45:45;;;;;;;2.67;1.70;;;;;;;12.79;100.00;96083.28;4998470;28;20034;-62
2023/09/22 01:48:12;;;;;;;1.45;0.65;;;;;;;12.72;100.00;96070.09;5003294;28;20104;-62
2023/09/22 01:50:40;;;;;;;2.20;0.63;;;;;;;12.68;100.00;96082.63;5003207;28;20092;-63
2023/09/22 01:53:09;;;;;;;2.85;0.70;;;;;;;12.63;100.00;96076.50;4987366;28;20038;-62
2023/09/22 01:55:40;;;;;;;2.60;0.60;;;;;;;12.53;100.00;96072.06;5002528;28;20049;-64
2023/09/22 01:58:08;;;;;;;1.75;0.73;;;;;;;12.54;100.00;96066.34;5004692;28;20045;-62
2023/09/22 02:00:35;;;;;;;1.83;0.70;;;;;;;12.59;100.00;96063.53;5002628;28;20041;-62
2023/09/22 02:03:03;;;;;;;1.40;0.57;;;;;;;12.42;100.00;96066.78;4984564;28;20129;-63
2023/09/22 02:05:30;;;;;;;1.58;0.65;;;;;;;12.52;100.00;96082.09;5003351;28;20038;-63
2023/09/22 02:07:57;;;;;;;3.08;0.50;;;;;;;12.46;100.00;96061.56;5002449;28;20088;-63
2023/09/22 02:10:23;;;;;;;1.88;0.60;;;;;;;12.51;100.00;96056.06;4985670;28;20048;-62
2023/09/22 02:12:50;;;;;;;2.25;0.77;;;;;;;12.39;100.00;96055.72;5002860;28;20505;-64
2023/09/22 02:15:16;;;;;;;1.48;0.63;;;;;;;12.29;100.00;96046.63;5003018;28;20716;-62
2023/09/22 02:17:46;;;;;;;3.17;0.68;;;;;;;12.33;100.00;96061.22;5002625;28;20034;-64
2023/09/22 02:20:18;;;;;;;1.83;0.88;;;;;;;12.20;100.00;96046.50;5001656;28;20042;-64
2023/09/22 02:22:46;;;;;;;3.28;0.60;;;;;;;12.12;100.00;96066.16;4979586;28;20169;-64
2023/09/22 02:25:15;;;;;;;4.05;0.70;;;;;;;12.10;100.00;96082.72;4984655;28;20677;-62
2023/09/22 02:27:42;;;;;;;1.90;0.88;;;;;;;12.08;100.00;96087.66;5002035;28;20034;-62
2023/09/22 02:30:10;;;;;;;1.67;0.70;;;;;;;12.07;100.00;96096.88;5002270;28;20053;-64
2023/09/22 02:32:39;;;;;;;1.98;1.40;;;;;;;12.13;100.00;96089.50;5002073;28;20046;-63
2023/09/22 02:35:06;;;;;;;3.53;0.90;;;;;;;12.11;100.00;96067.25;5001911;28;20411;-63
2023/09/22 02:37:33;;;;;;;3.35;0.70;;;;;;;12.16;100.00;96066.38;4984889;28;20535;-63
2023/09/22 02:40:00;;;;;;;2.70;0.77;;;;;;;12.14;100.00;96087.56;5002460;28;20088;-63
2023/09/22 02:42:26;;;;;;;3.67;0.80;;;;;;;12.15;100.00;96086.44;5001376;28;20579;-62
2023/09/22 02:44:53;;;;;;;2.58;1.00;;;;;;;12.26;100.00;96090.63;5002797;28;20045;-64
2023/09/22 02:47:20;;;;;;;2.55;0.80;;;;;;;12.35;100.00;96083.44;4998295;28;20420;-62
2023/09/22 02:49:47;;;;;;;1.23;0.50;;;;;;;12.40;100.00;96090.72;4999591;28;20038;-63
2023/09/22 02:52:14;;;;;;;1.50;0.73;;;;;;;12.39;100.00;96085.56;5002079;28;20038;-61
2023/09/22 02:54:41;;;;;;;3.80;1.08;;;;;;;12.34;100.00;96103.53;4984672;28;20052;-63
2023/09/22 02:57:08;;;;;;;1.65;0.70;;;;;;;12.35;100.00;96090.78;5003109;28;20052;-62
2023/09/22 02:59:34;;;;;;;1.58;0.75;;;;;;;12.33;100.00;96084.84;5002198;28;20076;-61
2023/09/22 03:02:01;;;;;;;1.60;0.80;;;;;;;12.38;100.00;96075.81;5005800;28;20045;-63
2023/09/22 03:04:31;;;;;;;1.50;0.75;;;;;;;12.31;100.00;96068.06;5006392;28;20037;-62
2023/09/22 03:06:57;;;;;;;2.45;0.95;;;;;;;12.20;100.00;96062.78;5006614;28;20042;-65
2023/09/22 03:09:24;;;;;;;1.95;0.80;;;;;;;12.20;100.00;96065.47;5004231;28;20046;-61
2023/09/22 03:11:54;;;;;;;1.95;0.80;;;;;;;12.17;100.00;96063.34;4988667;28;20569;-65
2023/09/22 03:14:21;;;;;;;1.80;0.70;;;;;;;12.32;100.00;96088.66;4987915;28;20066;-65
2023/09/22 03:16:48;;;;;;;2.17;0.77;;;;;;;12.28;100.00;96076.78;5006701;28;20119;-63
2023/09/22 03:19:14;;;;;;;4.22;1.00;;;;;;;12.34;100.00;96103.53;5005579;28;20232;-62
2023/09/22 03:21:41;;;;;;;1.60;0.90;;;;;;;12.34;100.00;96105.44;5005729;28;20061;-63
2023/09/22 03:24:08;;;;;;;2.38;0.95;;;;;;;12.20;100.00;96091.81;5004607;28;20409;-65
2023/09/22 03:26:35;;;;;;;3.95;0.90;;;;;;;12.25;100.00;96080.06;4988796;28;20045;-63
2023/09/22 03:29:02;;;;;;;3.22;0.95;;;;;;;12.17;100.00;96078.84;4988551;28;20095;-63
2023/09/22 03:31:28;;;;;;;2.03;0.80;;;;;;;12.11;100.00;96088.97;4987894;28;20811;-62
2023/09/22 03:33:55;;;;;;;1.70;0.73;;;;;;;12.04;100.00;96126.47;5006982;28;20042;-62
2023/09/22 03:36:22;;;;;;;4.43;0.90;;;;;;;12.03;100.00;96116.72;4987937;28;20073;-64
2023/09/22 03:38:48;;;;;;;1.63;0.80;;;;;;;12.00;100.00;96120.81;5003905;28;20394;-63
2023/09/22 03:41:17;;;;;;;1.92;0.65;;;;;;;11.98;100.00;96117.59;4987767;28;20629;-62
2023/09/22 03:43:44;;;;;;;3.45;0.77;;;;;;;12.03;100.00;96150.09;4983546;28;20042;-63
2023/09/22 03:46:11;;;;;;;3.38;0.85;;;;;;;12.05;100.00;96156.03;4988292;28;20509;-63
2023/09/22 03:48:41;;;;;;;0.95;0.50;;;;;;;12.13;100.00;96154.59;5005475;28;20040;-63
2023/09/22 03:51:09;;;;;;;1.80;0.73;;;;;;;12.17;100.00;96150.19;4989359;28;20076;-62
2023/09/22 03:53:35;;;;;;;2.58;0.95;;;;;;;12.17;100.00;96127.69;5004443;28;20084;-63
2023/09/22 03:56:02;;;;;;;4.53;0.90;;;;;;;12.29;100.00;96141.63;5005625;28;20045;-63
2023/09/22 03:58:29;;;;;;;2.35;0.90;;;;;;;12.28;100.00;96114.78;4988042;28;20137;-62
2023/09/22 04:01:09;;;;;;;2.03;0.88;;;;;;;12.31;100.00;96095.97;5004461;28;20034;-64
2023/09/22 04:03:36;;;;;;;1.92;0.80;;;;;;;12.34;100.00;96091.88;5004892;28;20046;-63
2023/09/22 04:06:04;;;;;;;3.33;0.77;;;;;;;12.36;100.00;96074.19;4993187;28;20077;-62
2023/09/22 04:08:31;;;;;;;2.53;0.90;;;;;;;12.38;100.00;96065.75;5005258;28;20133;-64
2023/09/22 04:10:58;;;;;;;1.40;0.60;;;;;;;12.44;100.00;96059.16;5005233;28;20042;-64
2023/09/22 04:13:26;;;;;;;2.25;0.90;;;;;;;12.43;100.00;96064.88;5003033;28;20561;-64
2023/09/22 04:15:58;;;;;;;1.73;0.70;;;;;;;12.48;100.00;96062.88;5004750;28;20095;-62
2023/09/22 04:18:29;;;;;;;2.10;0.93;;;;;;;12.38;100.00;96067.69;5004896;28;20133;-63
2023/09/22 04:20:57;;;;;;;2.05;0.80;;;;;;;12.30;100.00;96069.94;5005209;28;20038;-64
2023/09/22 04:23:25;;;;;;;1.23;0.60;;;;;;;12.32;100.00;96080.53;5004400;28;20604;-63
2023/09/22 04:25:54;;;;;;;3.28;0.88;;;;;;;12.24;100.00;96090.16;5005023;28;20409;-62
2023/09/22 04:28:25;;;;;;;2.28;0.90;;;;;;;12.16;100.00;96104.38;5003845;28;20041;-65
2023/09/22 04:30:54;;;;;;;2.38;1.15;;;;;;;12.17;100.00;96155.59;5003775;28;20045;-62
2023/09/22 04:33:21;;;;;;;2.67;0.90;;;;;;;12.04;100.00;96153.59;5002756;28;20048;-64
2023/09/22 04:35:48;;;;;;;5.35;1.27;;;;;;;12.05;100.00;96136.22;4997642;28;20044;-61
2023/09/22 04:38:15;;;;;;;2.58;1.23;;;;;;;12.16;100.00;96136.94;5003739;28;20056;-62
2023/09/22 04:40:41;;;;;;;1.77;0.70;;;;;;;12.16;100.00;96102.44;5004599;28;20042;-62
2023/09/22 04:43:08;;;;;;;1.70;0.85;;;;;;;12.08;100.00;96103.91;5005250;28;20068;-63
2023/09/22 04:45:43;;;;;;;4.10;1.15;;;;;;;12.19;100.00;96098.34;5004591;28;20034;-64
2023/09/22 04:48:10;;;;;;;1.55;0.60;;;;;;;12.24;100.00;96101.00;5004664;28;20111;-63
2023/09/22 04:50:38;;;;;;;1.98;0.70;;;;;;;12.16;100.00;96094.31;5004370;28;20045;-64
2023/09/22 04:53:05;;;;;;;4.45;0.70;;;;;;;12.17;100.00;96104.06;5004312;28;20540;-65
2023/09/22 04:55:35;;;;;;;1.10;0.60;;;;;;;12.29;100.00;96087.34;5002492;28;20038;-64
2023/09/22 04:58:05;;;;;;;3.03;0.80;;;;;;;12.41;100.00;96073.31;5004198;28;20125;-63
2023/09/22 05:00:34;;;;;;;3.20;0.93;;;;;;;12.42;100.00;96093.13;5002959;28;20046;-64
2023/09/22 05:03:02;;;;;;;4.43;0.90;;;;;;;12.36;100.00;96124.97;5003883;28;20034;-63
2023/09/22 05:05:30;;;;;;;2.85;0.60;;;;;;;12.47;100.00;96112.88;5003905;28;20060;-64
2023/09/22 05:07:57;;;;;;;3.28;1.08;;;;;;;12.39;100.00;96118.16;5001849;28;20124;-63
2023/09/22 05:10:24;;;;;;;2.80;0.82;;;;;;;12.42;100.00;96114.84;5002742;28;20129;-64
2023/09/22 05:12:54;;;;;;;2.85;0.88;;;;;;;12.32;100.00;96099.50;5004053;28;20042;-63
2023/09/22 05:15:20;;;;;;;3.50;0.95;;;;;;;12.20;100.00;96124.38;5001624;28;20074;-62
2023/09/22 05:17:47;;;;;;;4.80;1.02;;;;;;;12.03;100.00;96144.66;5004191;28;20046;-63
2023/09/22 05:20:14;;;;;;;4.40;1.77;;;;;;;12.12;100.00;96157.59;5003753;28;20045;-63
2023/09/22 05:22:41;;;;;;;2.25;1.00;;;;;;;12.18;100.00;96159.13;5003234;28;20050;-64
2023/09/22 05:25:10;;;;;;;1.83;0.88;;;;;;;12.16;100.00;96177.63;5003580;28;20053;-64
2023/09/22 05:27:36;;;;;;;2.30;0.90;;;;;;;12.12;100.00;96179.31;5001829;28;20140;-64
2023/09/22 05:30:06;;;;;;;3.95;1.33;;;;;;;12.16;100.00;96186.56;5000704;28;20501;-62
2023/09/22 05:32:34;;;;;;;3.20;1.38;;;;;;;12.25;100.00;96203.00;5001578;28;20136;-61
2023/09/22 05:35:01;;;;;;;2.05;0.90;;;;;;;12.29;100.00;96179.63;5003426;28;20103;-63
2023/09/22 05:37:27;;;;;;;4.68;1.40;;;;;;;12.37;100.00;96186.28;5003087;28;20509;-61
2023/09/22 05:39:53;;;;;;;1.75;0.85;;;;;;;12.46;100.00;96183.75;5003517;28;20038;-63
2023/09/22 05:42:20;;;;;;;2.58;1.10;;;;;;;12.55;100.00;96181.16;5002805;28;20169;-63
2023/09/22 05:44:47;;;;;;;5.07;1.42;;;;;;;12.42;100.00;96161.00;5003700;28;20030;-64
2023/09/22 05:47:13;;;;;;;3.17;0.90;;;;;;;12.36;100.00;96158.31;5002450;28;20100;-63
2023/09/22 05:49:40;;;;;;;3.95;0.80;;;;;;;12.46;100.00;96165.53;5003148;28;20046;-63
2023/09/22 05:52:07;;;;;;;3.35;1.58;;;;;;;12.54;100.00;96172.22;5002385;28;20061;-63
2023/09/22 05:54:34;;;;;;;1.95;0.80;;;;;;;12.52;100.00;96171.69;5002609;28;20083;-64
2023/09/22 05:57:01;;;;;;;2.05;0.63;;;;;;;12.57;100.00;96170.81;5003771;28;20465;-63
2023/09/22 05:59:28;;;;;;;2.40;0.90;;;;;;;12.62;100.00;96170.72;5005008;28;20609;-63
2023/09/22 06:01:57;;;;;;;2.95;0.70;;;;;;;12.60;100.00;96179.19;5003195;28;20046;-63
2023/09/22 06:04:24;;;;;;;2.20;0.80;;;;;;;12.68;100.00;96179.63;5002808;28;20042;-64
2023/09/22 06:06:53;;;;;;;4.85;0.90;;;;;;;12.71;100.00;96176.28;5003875;28;20044;-64
2023/09/22 06:09:21;;;;;;;1.77;0.80;;;;;;;12.75;100.00;96188.19;5002176;28;20053;-63
2023/09/22 06:11:49;;;;;;;3.67;1.27;;;;;;;12.83;100.00;96179.34;5001033;28;20053;-63
2023/09/22 06:14:15;;;;;;;2.42;1.02;;;;;;;12.85;100.00;96179.06;5001014;28;20588;-64
2023/09/22 06:16:42;;;;;;;2.13;0.80;;;;;;;12.89;100.00;96185.53;5002417;28;20124;-64
2023/09/22 06:19:10;;;;;;;2.22;1.05;;;;;;;12.88;100.00;96187.44;5001150;28;20057;-63
2023/09/22 06:21:38;;;;;;;3.85;0.90;;;;;;;12.96;100.00;96196.81;5002516;28;20054;-61
2023/09/22 06:24:06;;;;;;;2.70;0.90;;;;;;;13.01;100.00;96177.72;5000415;28;20045;-63
2023/09/22 06:26:33;;;;;;;5.35;1.25;;;;;;;12.98;100.00;96169.38;5000995;28;20049;-64
2023/09/22 06:28:59;;;;;;;1.60;0.80;;;;;;;12.92;100.00;96176.78;5000454;28;20042;-62
2023/09/22 06:31:26;;;;;;;4.03;1.08;;;;;;;12.94;100.00;96187.38;5000834;28;20056;-63
2023/09/22 06:33:53;;;;;;;3.05;0.73;;;;;;;12.95;100.00;96194.41;5000863;28;20046;-63
2023/09/22 06:36:20;;;;;;;2.60;1.13;;;;;;;12.96;100.00;96193.28;5003053;28;20070;-65
2023/09/22 06:38:46;;;;;;;3.25;0.70;;;;;;;12.97;100.00;96201.16;5005407;28;20052;-64
2023/09/22 06:41:20;;;;;;;2.95;1.02;;;;;;;12.97;100.00;96198.44;5003921;28;20045;-63
2023/09/22 06:43:46;;;;;;;1.75;0.80;;;;;;;13.01;100.00;96183.16;5007482;28;20445;-64
2023/09/22 06:46:23;;;;;;;2.45;0.90;;;;;;;13.03;100.00;96174.72;5004503;28;20651;-62
2023/09/22 06:48:50;;;;;;;2.72;0.98;;;;;;;13.10;100.00;96175.13;5004283;28;20045;-64
2023/09/22 06:51:18;;;;;;;2.50;1.08;;;;;;;12.97;100.00;96186.78;5006185;28;20077;-64
2023/09/22 06:53:47;;;;;;;2.72;0.90;;;;;;;13.04;100.00;96183.69;5006500;28;20539;-64
2023/09/22 06:56:13;;;;;;;2.92;0.95;;;;;;;13.10;100.00;96172.41;5006410;28;20041;-62
2023/09/22 06:58:40;;;;;;;3.35;0.95;;;;;;;13.08;100.00;96161.03;5006774;28;20041;-62
2023/09/22 07:01:09;;;;;;;1.60;0.80;;;;;;;13.08;100.00;96171.09;5006183;28;20111;-64
2023/09/22 07:03:41;;;;;;;3.03;1.00;;;;;;;13.26;100.00;96169.41;5004243;28;20065;-64
2023/09/22 07:06:10;;;;;;;1.65;0.63;;;;;;;13.42;100.00;96174.59;5004100;28;20069;-62
2023/09/22 07:08:38;;;;;;;2.83;1.00;;;;;;;13.37;100.00;96189.06;5002134;28;20058;-64
2023/09/22 07:11:13;;;;;;;2.90;0.65;;;;;;;13.39;100.00;96184.94;5004726;28;20049;-64
2023/09/22 07:13:40;;;;;;;2.58;0.93;;;;;;;13.34;100.00;96163.28;5004403;28;20132;-64
2023/09/22 07:16:08;;;;;;;1.90;0.70;;;;;;;13.34;100.00;96165.22;5003769;28;20402;-63
2023/09/22 07:18:35;;;;;;;3.13;0.80;;;;;;;13.38;100.00;96169.75;5003063;28;20141;-64
2023/09/22 07:21:01;;;;;;;1.95;0.80;;;;;;;13.53;100.00;96171.41;5006545;28;20096;-64
2023/09/22 07:23:30;;;;;;;1.95;0.90;;;;;;;13.57;100.00;96160.75;5004357;28;20501;-63
2023/09/22 07:26:02;;;;;;;2.95;0.80;;;;;;;13.67;100.00;96167.09;5006564;28;20045;-63
2023/09/22 07:28:29;;;;;;;;;;;;;;;13.68;100.00;96183.13;5005909;28;20180;-62
2023/09/22 07:30:56;;;;;;;3.80;0.90;;;;;;;13.65;100.00;96189.94;5006592;28;20416;-65
2023/09/22 07:33:30;;;;;;;2.03;0.70;;;;;;;13.62;100.00;96181.59;5005641;28;20046;-62
2023/09/22 07:35:58;;;;;;;2.15;0.70;;;;;;;13.58;100.00;96175.13;5001394;28;20034;-63
2023/09/22 07:38:26;;;;;;;2.17;0.70;;;;;;;13.65;100.00;96178.28;5005382;28;20045;-64
2023/09/22 07:40:53;;;;;;;3.55;0.95;;;;;;;13.52;100.00;96207.06;5006389;28;20140;-62
2023/09/22 07:43:20;;;;;;;3.38;0.93;;;;;;;13.45;100.00;96222.94;5004668;28;20863;-64
2023/09/22 07:45:47;;;;;;;3.08;0.90;;;;;;;13.54;100.00;96221.16;5004044;28;20041;-63
2023/09/22 07:48:14;;;;;;;3.45;1.23;;;;;;;13.55;100.00;96211.09;5004256;28;20117;-63
2023/09/22 07:50:41;;;;;;;1.25;0.65;;;;;;;13.51;100.00;96213.59;5002638;28;20698;-65
2023/09/22 07:53:08;;;;;;;1.73;0.63;;;;;;;13.51;100.00;96202.72;5005098;28;20132;-64
2023/09/22 07:55:35;;;;;;;1.30;0.60;;;;;;;13.53;100.00;96198.59;5003801;28;20528;-63
2023/09/22 07:58:03;;;;;;;3.90;0.80;;;;;;;13.62;100.00;96197.91;5005004;28;20473;-64
2023/09/22 08:00:30;;;;;;;4.57;0.98;;;;;;;13.63;100.00;96213.94;5004109;28;20049;-63
2023/09/22 08:02:59;;;;;;;3.38;0.90;;;;;;;13.63;100.00;96224.81;5003320;28;20075;-62
2023/09/22 08:05:27;;;;;;;3.38;1.20;;;;;;;13.61;100.00;96224.31;5000713;28;20046;-63
2023/09/22 08:07:54;;;;;;;1.13;0.43;;;;;;;13.71;100.00;96236.09;4999148;28;20547;-63
2023/09/22 08:10:24;;;;;;;1.45;0.55;;;;;;;13.73;100.00;96223.81;5001749;28;20046;-61
2023/09/22 08:12:51;;;;;;;3.22;1.02;;;;;;;13.71;100.00;96223.28;4985675;28;20168;-63
2023/09/22 08:15:18;;;;;;;3.03;0.70;;;;;;;13.68;100.00;96221.19;5002314;28;20472;-64
2023/09/22 08:17:49;;;;;;;3.67;0.75;;;;;;;13.79;100.00;96227.25;5003409;28;20061;-64
2023/09/22 08:20:16;;;;;;;3.15;0.73;;;;;;;13.79;100.00;96230.75;5003153;28;20045;-63
2023/09/22 08:22:43;;;;;;;2.90;0.80;;;;;;;13.87;100.00;96237.44;5002970;28;20046;-63
2023/09/22 08:25:10;;;;;;;2.22;0.77;;;;;;;13.88;100.00;96238.22;5001033;28;20038;-63
2023/09/22 08:27:38;;;;;;;1.40;0.68;;;;;;;14.02;100.00;96243.69;5005105;28;20120;-63
2023/09/22 08:30:10;;;;;;;1.90;0.63;;;;;;;14.16;100.00;96244.47;5007209;28;20121;-63
2023/09/22 08:32:39;;;;;;;1.48;0.60;;;;;;;14.11;100.00;96236.41;5001194;28;20041;-63
2023/09/22 08:35:08;;;;;;;1.75;0.65;;;;;;;14.17;100.00;96248.81;5002961;28;20060;-63
2023/09/22 08:37:36;;;;;;;4.25;1.10;;;;;;;14.11;100.00;96250.03;5001632;28;20493;-64
2023/09/22 08:40:08;;;;;;;1.75;0.95;;;;;;;14.09;100.00;96251.44;5002166;28;20077;-63
2023/09/22 08:42:36;;;;;;;1.50;0.70;;;;;;;14.07;100.00;96248.22;5001177;28;20052;-62
2023/09/22 08:45:06;;;;;;;4.78;1.20;;;;;;;14.26;100.00;96242.69;5003350;28;20053;-63
2023/09/22 08:47:38;;;;;;;2.20;0.90;;;;;;;14.20;100.00;96236.53;5001828;28;20705;-63
2023/09/22 08:50:10;;;;;;;1.88;0.65;;;;;;;14.44;100.00;96249.09;5003338;28;20037;-63
2023/09/22 08:52:39;;;;;;;2.58;1.05;;;;;;;14.48;100.00;96241.91;5001546;28;20050;-64
2023/09/22 08:55:14;;;;;;;4.85;1.27;;;;;;;14.48;100.00;96249.31;5002206;28;20038;-63
2023/09/22 08:57:45;;;;;;;2.85;1.08;;;;;;;14.60;100.00;96255.03;5002040;28;20572;-63
2023/09/22 09:00:18;;;;;;;2.53;0.90;;;;;;;14.75;100.00;96251.16;5004826;28;20046;-62
2023/09/22 09:02:47;;;;;;;3.05;0.90;;;;;;;14.68;100.00;96254.28;5002120;28;20584;-63
2023/09/22 09:05:27;;;;;;;2.83;1.02;;;;;;;14.76;100.00;96255.53;5001775;28;20042;-62
2023/09/22 09:07:56;;;;;;;3.90;0.73;;;;;;;14.70;100.00;96253.97;5002828;28;20485;-63
2023/09/22 09:10:26;;;;;;;1.88;0.60;;;;;;;14.74;100.00;96246.81;5001527;28;20037;-63
2023/09/22 09:12:54;;;;;;;1.95;0.70;;;;;;;14.94;100.00;96250.22;5002203;28;20040;-63
2023/09/22 09:15:27;;;;;;;3.75;0.95;;;;;;;14.95;100.00;96246.38;5001775;28;20038;-63
2023/09/22 09:18:04;;;;;;;4.40;1.38;;;;;;;15.11;100.00;96251.47;4999269;28;20052;-64
2023/09/22 09:20:32;;;;;;;5.22;0.75;;;;;;;15.30;100.00;96254.03;5000870;28;20885;-63
2023/09/22 09:23:00;;;;;;;3.22;0.60;;;;;;;15.36;100.00;96249.25;5002748;28;20042;-63
2023/09/22 09:25:29;;;;;;;1.73;0.70;;;;;;;15.48;100.00;96257.66;5006578;28;20046;-63
2023/09/22 09:28:02;;;;;;;3.10;0.80;;;;;;;15.43;100.00;96258.59;5002441;28;20057;-64
2023/09/22 09:30:31;;;;;;;1.67;0.60;;;;;;;15.46;100.00;96266.16;5000895;28;20771;-62
2023/09/22 09:33:27;;;;;;;2.15;0.55;;;;;;;15.59;100.00;96263.69;5001585;28;20513;-62
2023/09/22 09:35:55;;;;;;;1.25;0.60;;;;;;;15.70;100.00;96254.09;4999592;28;20056;-63
2023/09/22 09:38:29;;;;;;;4.18;0.60;;;;;;;15.74;100.00;96254.28;5001529;28;20045;-62
2023/09/22 09:40:58;;;;;;;1.90;0.60;;;;;;;15.67;100.00;96251.19;5000955;28;20066;-62
2023/09/22 09:43:25;;;;;;;3.25;0.80;;;;;;;15.71;100.00;96265.81;5002107;28;20493;-62
2023/09/22 09:45:57;;;;;;;2.78;0.90;;;;;;;15.67;100.00;96264.84;5001656;28;20045;-64
2023/09/22 09:48:26;;;;;;;3.88;0.80;;;;;;;15.52;100.00;96255.91;5001391;28;20133;-62
2023/09/22 09:50:59;;;;;;;4.20;0.82;;;;;;;15.54;100.00;96261.06;5003412;28;20060;-62
2023/09/22 09:53:45;;;;;;;2.13;0.75;;;;;;;15.38;100.00;96264.19;5003157;28;20571;-62
2023/09/22 09:56:14;;;;;;;3.85;0.60;;;;;;;15.40;100.00;96264.66;5001371;28;20149;-62
2023/09/22 09:58:42;;;;;;;2.03;0.93;;;;;;;15.32;100.00;96271.69;5001520;28;20049;-62
2023/09/22 10:01:08;;;;;;;2.35;0.80;;;;;;;15.24;100.00;96263.44;5002016;28;20116;-63
2023/09/22 10:03:39;;;;;;;2.00;0.45;;;;;;;15.28;100.00;96265.22;5000727;28;20117;-62
2023/09/22 10:06:10;;;;;;;;;;;;;;;15.38;100.00;96260.63;5002276;28;20441;-63
2023/09/22 10:08:40;;;;;;;2.25;0.60;;;;;;;15.65;100.00;96253.41;5001565;28;19922;-62
2023/09/22 10:11:09;;;;;;;1.48;0.60;;;;;;;15.84;100.00;96237.63;5000017;28;20046;-63
2023/09/22 10:13:36;;;;;;;0.50;0.20;;;;;;;15.67;100.00;96232.09;4998632;28;20050;-63
2023/09/22 10:16:04;;;;;;;1.08;0.40;;;;;;;15.56;100.00;96234.28;5001578;28;20097;-63
2023/09/22 10:18:52;;;;;;;1.92;0.57;;;;;;;15.67;100.00;96227.41;5000756;28;20065;-62
2023/09/22 10:21:28;;;;;;;2.13;0.50;;;;;;;15.74;99.08;96219.59;5002416;28;20046;-62
2023/09/22 10:24:14;;;;;;;1.73;0.50;;;;;;;16.02;100.00;96223.25;5001657;28;20650;-63
2023/09/22 10:26:55;;;;;;;1.70;0.50;;;;;;;16.18;97.41;96218.97;5000726;28;20037;-63
2023/09/22 10:29:35;;;;;;;1.30;0.52;;;;;;;16.35;92.33;96218.22;5001159;28;20138;-62
2023/09/22 10:32:17;;;;;;;0.98;0.70;;;;;;;16.56;95.10;96208.63;5000473;28;20046;-63
2023/09/22 10:34:51;;;;;;;2.20;0.50;;;;;;;16.69;92.50;96217.81;5000516;28;20049;-63
2023/09/22 10:37:20;;;;;;;3.05;0.73;;;;;;;16.72;90.28;96228.06;5000924;28;20044;-62
2023/09/22 10:39:48;;;;;;;3.10;0.50;;;;;;;16.69;90.00;96235.00;4999906;28;20183;-62
2023/09/22 10:42:14;;;;;;;1.55;0.40;;;;;;;16.69;87.59;96234.19;5000620;28;20049;-63
2023/09/22 10:44:58;;;;;;;0.85;0.40;;;;;;;17.08;89.38;96226.19;5001307;28;20815;-63
2023/09/22 10:47:46;;;;;;;1.15;0.40;;;;;;;17.32;86.36;96230.34;5000703;28;20050;-62
2023/09/22 10:50:30;;;;;;;2.05;0.57;;;;;;;17.49;83.98;96227.56;4998459;28;20190;-63
2023/09/22 10:53:02;;;;;;;2.65;0.40;;;;;;;17.56;82.59;96229.81;5003106;28;20229;-63
2023/09/22 10:55:37;;;;;;;1.08;0.40;;;;;;;17.80;82.82;96232.00;5000651;28;20136;-63
2023/09/22 10:58:04;;;;;;;0.80;0.40;;;;;;;17.35;78.92;96235.16;5000951;28;20049;-63
2023/09/22 11:00:32;;;;;;;1.27;0.40;;;;;;;17.27;77.97;96226.66;4999462;28;20052;-63
2023/09/22 11:03:06;;;;;;;1.48;0.50;;;;;;;17.31;79.11;96229.53;4996595;28;20045;-64
2023/09/22 11:05:34;;;;;;;5.15;0.68;;;;;;;17.28;77.21;96225.53;5001183;28;20152;-63
2023/09/22 11:08:09;;;;;;;0.93;0.40;;;;;;;17.54;77.92;96219.19;5001264;28;20038;-62
2023/09/22 11:10:35;;;;;;;1.92;0.50;;;;;;;17.68;74.37;96212.72;4998064;28;20126;-63
2023/09/22 11:13:03;;;;;;;2.38;0.60;;;;;;;17.78;75.67;96215.09;5000466;28;20054;-61
2023/09/22 11:15:31;;;;;;;4.32;0.55;;;;;;;17.87;73.83;96225.22;5000210;28;20056;-63
2023/09/22 11:17:57;;;;;;;4.57;0.70;;;;;;;18.02;73.00;96221.13;4996287;28;20049;-64
2023/09/22 11:20:28;;;;;;;1.67;0.85;;;;;;;18.12;73.44;96228.19;4999395;28;20046;-63
2023/09/22 11:22:59;;;;;;;1.60;0.50;;;;;;;18.06;72.98;96225.59;5003898;28;20111;-63
2023/09/22 11:25:26;;;;;;;2.85;0.50;;;;;;;18.20;75.56;96224.59;5004131;28;20044;-63
2023/09/22 11:27:53;;;;;;;1.40;0.60;;;;;;;18.37;72.44;96228.38;5003915;28;20050;-62
2023/09/22 11:30:26;;;;;;;1.75;0.45;;;;;;;18.58;70.55;96231.16;5004027;28;20113;-63
2023/09/22 11:32:54;;;;;;;2.38;0.60;;;;;;;18.17;71.56;96226.06;5003860;28;20137;-61
2023/09/22 11:35:41;;;;;;;1.67;0.60;;;;;;;18.20;72.76;96232.81;5003381;28;20076;-62